sensor_id;sensor_type;location;lat;lon;timestamp;temperature;humidity
67186;HTU21D;54116;53.518;49.398;2024-02-21T05:22:20;-22.27;118.99
67186;HTU21D;54116;53.518;49.398;2024-02-21T05:32:53;-21.62;118.99
67186;HTU21D;54116;53.518;49.398;2024-02-21T05:35:19;-21.21;118.99
67186;HTU21D;54116;53.518;49.398;2024-02-21T06:30:48;-18.14;118.99
67186;HTU21D;54116;53.518;49.398;2024-02-21T06:33:15;-18.26;118.99
67186;HTU21D;54116;53.518;49.398;2024-02-21T06:58:08;-17.85;118.99
67186;HTU21D;54116;53.518;49.398;2024-02-21T07:02:52;-17.40;118.99
67186;HTU21D;54116;53.518;49.398;2024-02-21T07:43:14;-16.84;118.99
67186;HTU21D;54116;53.518;49.398;2024-02-21T07:45:40;-16.93;118.99
67186;HTU21D;54116;53.518;49.398;2024-02-21T07:48:07;-16.91;118.99
67186;HTU21D;54116;53.518;49.398;2024-02-21T07:50:33;-16.88;118.99
67186;HTU21D;54116;53.518;49.398;2024-02-21T07:52:59;-16.78;118.99
67186;HTU21D;54116;53.518;49.398;2024-02-21T07:55:25;-16.80;118.99
67186;HTU21D;54116;53.518;49.398;2024-02-21T07:57:51;-16.99;118.99
67186;HTU21D;54116;53.518;49.398;2024-02-21T08:00:18;-16.89;118.99
67186;HTU21D;54116;53.518;49.398;2024-02-21T08:02:46;-17.00;118.99
67186;HTU21D;54116;53.518;49.398;2024-02-21T08:05:12;-16.95;118.99
67186;HTU21D;54116;53.518;49.398;2024-02-21T08:07:38;-17.01;118.99
67186;HTU21D;54116;53.518;49.398;2024-02-21T08:10:05;-16.93;118.99
67186;HTU21D;54116;53.518;49.398;2024-02-21T08:12:34;-16.97;118.99
67186;HTU21D;54116;53.518;49.398;2024-02-21T08:15:01;-17.31;118.99
67186;HTU21D;54116;53.518;49.398;2024-02-21T08:17:29;-17.06;118.99
67186;HTU21D;54116;53.518;49.398;2024-02-21T08:19:55;-17.18;118.99
67186;HTU21D;54116;53.518;49.398;2024-02-21T08:22:21;-17.22;118.99
67186;HTU21D;54116;53.518;49.398;2024-02-21T08:24:47;-17.22;118.99
67186;HTU21D;54116;53.518;49.398;2024-02-21T08:27:13;-17.39;118.99
67186;HTU21D;54116;53.518;49.398;2024-02-21T08:29:39;-17.35;118.99
67186;HTU21D;54116;53.518;49.398;2024-02-21T08:32:05;-17.23;118.99
67186;HTU21D;54116;53.518;49.398;2024-02-21T08:34:31;-17.35;118.99
67186;HTU21D;54116;53.518;49.398;2024-02-21T08:37:00;-17.31;118.99
67186;HTU21D;54116;53.518;49.398;2024-02-21T08:39:26;-17.22;118.99
67186;HTU21D;54116;53.518;49.398;2024-02-21T08:41:54;-16.83;118.99
67186;HTU21D;54116;53.518;49.398;2024-02-21T08:44:27;-16.76;118.99
67186;HTU21D;54116;53.518;49.398;2024-02-21T08:46:53;-16.95;118.99
67186;HTU21D;54116;53.518;49.398;2024-02-21T08:49:19;-17.02;118.99
67186;HTU21D;54116;53.518;49.398;2024-02-21T08:51:45;-16.99;118.99
67186;HTU21D;54116;53.518;49.398;2024-02-21T08:54:12;-16.98;118.99
67186;HTU21D;54116;53.518;49.398;2024-02-21T08:56:38;-16.78;118.99
67186;HTU21D;54116;53.518;49.398;2024-02-21T08:59:04;-16.84;118.99
67186;HTU21D;54116;53.518;49.398;2024-02-21T09:01:30;-16.87;118.99
67186;HTU21D;54116;53.518;49.398;2024-02-21T09:03:56;-17.30;118.99
67186;HTU21D;54116;53.518;49.398;2024-02-21T09:06:23;-17.35;118.99
67186;HTU21D;54116;53.518;49.398;2024-02-21T09:08:49;-17.21;118.99
67186;HTU21D;54116;53.518;49.398;2024-02-21T09:11:15;-17.23;118.99
67186;HTU21D;54116;53.518;49.398;2024-02-21T09:13:41;-17.27;118.99
67186;HTU21D;54116;53.518;49.398;2024-02-21T09:16:07;-17.30;118.99
67186;HTU21D;54116;53.518;49.398;2024-02-21T09:18:34;-17.38;118.99
67186;HTU21D;54116;53.518;49.398;2024-02-21T09:21:00;-17.47;118.99
67186;HTU21D;54116;53.518;49.398;2024-02-21T09:23:27;-17.37;118.99
67186;HTU21D;54116;53.518;49.398;2024-02-21T09:25:53;-17.21;118.99
67186;HTU21D;54116;53.518;49.398;2024-02-21T09:28:21;-17.10;118.99
67186;HTU21D;54116;53.518;49.398;2024-02-21T09:30:47;-17.13;118.99
67186;HTU21D;54116;53.518;49.398;2024-02-21T09:33:13;-17.20;118.99
67186;HTU21D;54116;53.518;49.398;2024-02-21T09:35:39;-17.08;118.99
67186;HTU21D;54116;53.518;49.398;2024-02-21T09:38:05;-17.14;118.99
67186;HTU21D;54116;53.518;49.398;2024-02-21T09:40:32;-16.88;118.99
67186;HTU21D;54116;53.518;49.398;2024-02-21T09:43:04;-16.95;118.99
67186;HTU21D;54116;53.518;49.398;2024-02-21T09:45:34;-17.15;118.99
67186;HTU21D;54116;53.518;49.398;2024-02-21T09:50:40;-17.11;118.99
67186;HTU21D;54116;53.518;49.398;2024-02-21T09:53:12;-16.98;118.99
67186;HTU21D;54116;53.518;49.398;2024-02-21T09:55:40;-17.08;118.99
67186;HTU21D;54116;53.518;49.398;2024-02-21T09:58:10;-17.04;118.99
67186;HTU21D;54116;53.518;49.398;2024-02-21T10:00:36;-17.04;118.99
67186;HTU21D;54116;53.518;49.398;2024-02-21T10:03:03;-16.93;118.99
67186;HTU21D;54116;53.518;49.398;2024-02-21T10:05:35;-16.96;118.99
67186;HTU21D;54116;53.518;49.398;2024-02-21T10:08:02;-16.76;118.99
67186;HTU21D;54116;53.518;49.398;2024-02-21T10:10:28;-16.89;118.99
67186;HTU21D;54116;53.518;49.398;2024-02-21T10:12:56;-17.03;118.99
67186;HTU21D;54116;53.518;49.398;2024-02-21T10:15:24;-17.04;118.99
67186;HTU21D;54116;53.518;49.398;2024-02-21T10:17:58;-17.20;118.99
67186;HTU21D;54116;53.518;49.398;2024-02-21T10:20:25;-17.45;118.99
67186;HTU21D;54116;53.518;49.398;2024-02-21T10:23:04;-17.71;118.99
67186;HTU21D;54116;53.518;49.398;2024-02-21T10:25:34;-17.83;118.99
67186;HTU21D;54116;53.518;49.398;2024-02-21T10:28:02;-17.84;118.99
67186;HTU21D;54116;53.518;49.398;2024-02-21T10:30:29;-17.82;118.99
67186;HTU21D;54116;53.518;49.398;2024-02-21T10:32:56;-17.68;118.99
67186;HTU21D;54116;53.518;49.398;2024-02-21T10:35:31;-17.54;118.99
67186;HTU21D;54116;53.518;49.398;2024-02-21T10:37:59;-17.36;118.99
67186;HTU21D;54116;53.518;49.398;2024-02-21T10:40:29;-17.16;118.99
67186;HTU21D;54116;53.518;49.398;2024-02-21T10:42:58;-17.24;118.99
67186;HTU21D;54116;53.518;49.398;2024-02-21T10:45:35;-17.21;118.99
67186;HTU21D;54116;53.518;49.398;2024-02-21T10:48:12;-17.02;118.99
67186;HTU21D;54116;53.518;49.398;2024-02-21T10:50:57;-17.06;118.99
67186;HTU21D;54116;53.518;49.398;2024-02-21T10:53:36;-17.08;118.99
67186;HTU21D;54116;53.518;49.398;2024-02-21T10:58:48;-17.13;118.99
67186;HTU21D;54116;53.518;49.398;2024-02-21T11:01:14;-17.36;118.99
67186;HTU21D;54116;53.518;49.398;2024-02-21T11:03:45;-17.48;118.99
67186;HTU21D;54116;53.518;49.398;2024-02-21T11:06:13;-17.48;118.99
67186;HTU21D;54116;53.518;49.398;2024-02-21T11:08:39;-17.37;118.99
67186;HTU21D;54116;53.518;49.398;2024-02-21T11:11:06;-17.39;118.99
67186;HTU21D;54116;53.518;49.398;2024-02-21T11:13:34;-17.32;118.99
67186;HTU21D;54116;53.518;49.398;2024-02-21T11:16:11;-17.27;118.99
67186;HTU21D;54116;53.518;49.398;2024-02-21T11:18:38;-17.29;118.99
67186;HTU21D;54116;53.518;49.398;2024-02-21T11:21:04;-17.35;118.99
67186;HTU21D;54116;53.518;49.398;2024-02-21T11:23:31;-17.47;118.99
67186;HTU21D;54116;53.518;49.398;2024-02-21T11:26:08;-17.53;118.99
67186;HTU21D;54116;53.518;49.398;2024-02-21T11:28:35;-17.47;118.99
67186;HTU21D;54116;53.518;49.398;2024-02-21T11:31:11;-17.46;118.99
67186;HTU21D;54116;53.518;49.398;2024-02-21T11:33:42;-17.65;118.99
67186;HTU21D;54116;53.518;49.398;2024-02-21T11:36:09;-17.71;118.99
67186;HTU21D;54116;53.518;49.398;2024-02-21T11:38:36;-17.85;118.99
67186;HTU21D;54116;53.518;49.398;2024-02-21T11:41:02;-17.92;118.99
67186;HTU21D;54116;53.518;49.398;2024-02-21T11:43:29;-17.82;118.99
67186;HTU21D;54116;53.518;49.398;2024-02-21T11:46:00;-17.80;118.99
67186;HTU21D;54116;53.518;49.398;2024-02-21T11:48:27;-17.68;118.99
67186;HTU21D;54116;53.518;49.398;2024-02-21T11:50:57;-17.78;118.99
67186;HTU21D;54116;53.518;49.398;2024-02-21T11:53:23;-17.73;118.99
67186;HTU21D;54116;53.518;49.398;2024-02-21T11:55:49;-17.68;118.99
67186;HTU21D;54116;53.518;49.398;2024-02-21T11:58:16;-17.65;118.99
67186;HTU21D;54116;53.518;49.398;2024-02-21T12:00:42;-17.76;118.99
67186;HTU21D;54116;53.518;49.398;2024-02-21T12:03:08;-17.75;118.99
67186;HTU21D;54116;53.518;49.398;2024-02-21T12:05:34;-17.73;118.99
67186;HTU21D;54116;53.518;49.398;2024-02-21T12:08:01;-17.75;118.99
67186;HTU21D;54116;53.518;49.398;2024-02-21T12:10:27;-17.70;118.99
67186;HTU21D;54116;53.518;49.398;2024-02-21T12:12:53;-17.70;118.99
67186;HTU21D;54116;53.518;49.398;2024-02-21T12:15:24;-17.70;118.99
67186;HTU21D;54116;53.518;49.398;2024-02-21T12:17:50;-17.75;118.99
67186;HTU21D;54116;53.518;49.398;2024-02-21T12:20:17;-17.96;118.99
67186;HTU21D;54116;53.518;49.398;2024-02-21T12:22:43;-17.94;118.99
67186;HTU21D;54116;53.518;49.398;2024-02-21T12:25:17;-18.14;118.99
67186;HTU21D;54116;53.518;49.398;2024-02-21T12:27:46;-17.92;118.99
67186;HTU21D;54116;53.518;49.398;2024-02-21T12:30:12;-17.98;118.99
67186;HTU21D;54116;53.518;49.398;2024-02-21T12:32:38;-18.15;118.99
67186;HTU21D;54116;53.518;49.398;2024-02-21T12:35:05;-18.07;118.99
67186;HTU21D;54116;53.518;49.398;2024-02-21T12:37:31;-18.00;118.99
67186;HTU21D;54116;53.518;49.398;2024-02-21T12:39:59;-17.92;118.99
67186;HTU21D;54116;53.518;49.398;2024-02-21T12:42:25;-17.90;118.99
67186;HTU21D;54116;53.518;49.398;2024-02-21T12:44:52;-18.06;118.99
67186;HTU21D;54116;53.518;49.398;2024-02-21T12:47:18;-18.27;118.99
67186;HTU21D;54116;53.518;49.398;2024-02-21T12:49:49;-18.27;118.99
67186;HTU21D;54116;53.518;49.398;2024-02-21T12:52:15;-18.26;118.99
67186;HTU21D;54116;53.518;49.398;2024-02-21T12:54:42;-18.37;118.99
67186;HTU21D;54116;53.518;49.398;2024-02-21T12:57:11;-18.55;118.99
67186;HTU21D;54116;53.518;49.398;2024-02-21T12:59:37;-18.80;118.99
67186;HTU21D;54116;53.518;49.398;2024-02-21T13:02:03;-18.96;118.99
67186;HTU21D;54116;53.518;49.398;2024-02-21T13:04:29;-18.86;118.99
67186;HTU21D;54116;53.518;49.398;2024-02-21T13:06:55;-19.05;118.99
67186;HTU21D;54116;53.518;49.398;2024-02-21T13:09:22;-19.09;118.99
67186;HTU21D;54116;53.518;49.398;2024-02-21T13:11:48;-19.40;118.99
67186;HTU21D;54116;53.518;49.398;2024-02-21T13:14:14;-19.48;118.99
67186;HTU21D;54116;53.518;49.398;2024-02-21T13:16:47;-19.54;118.99
67186;HTU21D;54116;53.518;49.398;2024-02-21T13:19:13;-19.65;118.99
67186;HTU21D;54116;53.518;49.398;2024-02-21T13:21:43;-19.75;118.99
67186;HTU21D;54116;53.518;49.398;2024-02-21T13:24:09;-19.78;118.99
67186;HTU21D;54116;53.518;49.398;2024-02-21T13:26:35;-19.93;118.99
67186;HTU21D;54116;53.518;49.398;2024-02-21T13:29:01;-20.06;118.99
67186;HTU21D;54116;53.518;49.398;2024-02-21T13:31:28;-20.19;118.99
67186;HTU21D;54116;53.518;49.398;2024-02-21T13:33:54;-20.22;118.99
67186;HTU21D;54116;53.518;49.398;2024-02-21T13:36:20;-20.39;118.99
67186;HTU21D;54116;53.518;49.398;2024-02-21T13:38:46;-20.58;118.99
67186;HTU21D;54116;53.518;49.398;2024-02-21T13:41:13;-20.70;118.99
67186;HTU21D;54116;53.518;49.398;2024-02-21T13:43:39;-20.71;118.99
67186;HTU21D;54116;53.518;49.398;2024-02-21T13:46:05;-20.80;118.99
67186;HTU21D;54116;53.518;49.398;2024-02-21T13:48:35;-20.98;118.99
67186;HTU21D;54116;53.518;49.398;2024-02-21T13:51:01;-21.10;118.99
67186;HTU21D;54116;53.518;49.398;2024-02-21T13:53:28;-21.15;118.99
67186;HTU21D;54116;53.518;49.398;2024-02-21T13:55:54;-21.21;118.99
67186;HTU21D;54116;53.518;49.398;2024-02-21T13:58:20;-21.36;118.99
67186;HTU21D;54116;53.518;49.398;2024-02-21T14:00:47;-21.53;118.99
67186;HTU21D;54116;53.518;49.398;2024-02-21T14:03:13;-21.66;118.99
67186;HTU21D;54116;53.518;49.398;2024-02-21T14:05:40;-21.72;118.99
67186;HTU21D;54116;53.518;49.398;2024-02-21T14:08:06;-21.82;118.99
67186;HTU21D;54116;53.518;49.398;2024-02-21T14:10:32;-21.94;118.99
67186;HTU21D;54116;53.518;49.398;2024-02-21T14:12:59;-22.04;118.99
67186;HTU21D;54116;53.518;49.398;2024-02-21T14:15:26;-22.08;118.99
67186;HTU21D;54116;53.518;49.398;2024-02-21T14:17:52;-22.12;118.99
67186;HTU21D;54116;53.518;49.398;2024-02-21T14:20:18;-22.13;118.99
67186;HTU21D;54116;53.518;49.398;2024-02-21T14:22:44;-22.14;118.99
67186;HTU21D;54116;53.518;49.398;2024-02-21T14:25:11;-22.26;118.99
67186;HTU21D;54116;53.518;49.398;2024-02-21T14:27:38;-22.28;118.99
67186;HTU21D;54116;53.518;49.398;2024-02-21T14:30:04;-22.30;118.99
67186;HTU21D;54116;53.518;49.398;2024-02-21T14:32:31;-22.39;118.99
67186;HTU21D;54116;53.518;49.398;2024-02-21T14:34:57;-22.43;118.99
67186;HTU21D;54116;53.518;49.398;2024-02-21T14:37:23;-22.48;118.99
67186;HTU21D;54116;53.518;49.398;2024-02-21T14:39:49;-22.55;118.99
67186;HTU21D;54116;53.518;49.398;2024-02-21T14:42:16;-22.59;118.99
67186;HTU21D;54116;53.518;49.398;2024-02-21T14:44:43;-22.65;118.99
67186;HTU21D;54116;53.518;49.398;2024-02-21T14:47:09;-22.58;118.99
67186;HTU21D;54116;53.518;49.398;2024-02-21T14:49:35;-22.50;118.99
67186;HTU21D;54116;53.518;49.398;2024-02-21T14:52:02;-22.68;118.99
67186;HTU21D;54116;53.518;49.398;2024-02-21T14:54:28;-22.60;118.99
67186;HTU21D;54116;53.518;49.398;2024-02-21T14:56:54;-22.70;118.99
67186;HTU21D;54116;53.518;49.398;2024-02-21T14:59:20;-22.80;118.99
67186;HTU21D;54116;53.518;49.398;2024-02-21T15:01:46;-22.87;118.99
67186;HTU21D;54116;53.518;49.398;2024-02-21T15:04:13;-22.91;118.99
67186;HTU21D;54116;53.518;49.398;2024-02-21T15:06:39;-23.07;118.99
67186;HTU21D;54116;53.518;49.398;2024-02-21T15:09:05;-23.20;118.99
67186;HTU21D;54116;53.518;49.398;2024-02-21T15:11:33;-23.34;118.99
67186;HTU21D;54116;53.518;49.398;2024-02-21T15:13:59;-23.42;118.99
67186;HTU21D;54116;53.518;49.398;2024-02-21T15:16:25;-23.51;118.99
67186;HTU21D;54116;53.518;49.398;2024-02-21T15:18:52;-23.48;118.99
67186;HTU21D;54116;53.518;49.398;2024-02-21T15:21:18;-23.59;118.99
67186;HTU21D;54116;53.518;49.398;2024-02-21T15:23:44;-23.65;118.99
67186;HTU21D;54116;53.518;49.398;2024-02-21T15:26:10;-23.78;118.99
67186;HTU21D;54116;53.518;49.398;2024-02-21T15:28:37;-23.91;118.99
67186;HTU21D;54116;53.518;49.398;2024-02-21T15:31:03;-23.94;118.99
67186;HTU21D;54116;53.518;49.398;2024-02-21T15:33:29;-23.96;118.99
67186;HTU21D;54116;53.518;49.398;2024-02-21T15:35:55;-24.12;118.99
67186;HTU21D;54116;53.518;49.398;2024-02-21T15:38:21;-24.26;118.99
67186;HTU21D;54116;53.518;49.398;2024-02-21T15:40:47;-24.33;118.99
67186;HTU21D;54116;53.518;49.398;2024-02-21T15:43:14;-24.34;118.99
67186;HTU21D;54116;53.518;49.398;2024-02-21T15:45:40;-24.27;118.99
67186;HTU21D;54116;53.518;49.398;2024-02-21T15:48:07;-24.24;118.99
67186;HTU21D;54116;53.518;49.398;2024-02-21T15:50:33;-24.32;118.99
67186;HTU21D;54116;53.518;49.398;2024-02-21T15:52:59;-24.41;118.99
67186;HTU21D;54116;53.518;49.398;2024-02-21T15:55:26;-24.50;118.99
67186;HTU21D;54116;53.518;49.398;2024-02-21T15:57:54;-24.61;118.99
67186;HTU21D;54116;53.518;49.398;2024-02-21T16:00:20;-24.70;118.99
67186;HTU21D;54116;53.518;49.398;2024-02-21T16:02:48;-24.73;118.99
67186;HTU21D;54116;53.518;49.398;2024-02-21T16:05:14;-24.79;118.99
67186;HTU21D;54116;53.518;49.398;2024-02-21T16:07:42;-24.73;118.99
67186;HTU21D;54116;53.518;49.398;2024-02-21T16:10:08;-24.81;118.99
67186;HTU21D;54116;53.518;49.398;2024-02-21T16:12:35;-24.75;118.99
67186;HTU21D;54116;53.518;49.398;2024-02-21T16:15:05;-24.68;118.99
67186;HTU21D;54116;53.518;49.398;2024-02-21T16:17:31;-24.66;118.99
67186;HTU21D;54116;53.518;49.398;2024-02-21T16:19:57;-24.75;118.99
67186;HTU21D;54116;53.518;49.398;2024-02-21T16:22:23;-24.85;118.99
67186;HTU21D;54116;53.518;49.398;2024-02-21T16:24:49;-24.92;118.99
67186;HTU21D;54116;53.518;49.398;2024-02-21T16:27:16;-24.97;118.99
67186;HTU21D;54116;53.518;49.398;2024-02-21T16:29:42;-25.04;118.99
67186;HTU21D;54116;53.518;49.398;2024-02-21T16:32:08;-25.08;118.99
67186;HTU21D;54116;53.518;49.398;2024-02-21T16:34:34;-25.19;118.99
67186;HTU21D;54116;53.518;49.398;2024-02-21T16:37:01;-25.19;118.99
67186;HTU21D;54116;53.518;49.398;2024-02-21T16:39:27;-25.28;118.99
67186;HTU21D;54116;53.518;49.398;2024-02-21T16:41:53;-25.35;118.99
67186;HTU21D;54116;53.518;49.398;2024-02-21T16:44:19;-25.40;118.99
67186;HTU21D;54116;53.518;49.398;2024-02-21T16:46:46;-25.49;118.99
67186;HTU21D;54116;53.518;49.398;2024-02-21T16:49:12;-25.54;118.99
67186;HTU21D;54116;53.518;49.398;2024-02-21T16:51:38;-25.53;118.99
67186;HTU21D;54116;53.518;49.398;2024-02-21T16:54:04;-25.50;118.99
67186;HTU21D;54116;53.518;49.398;2024-02-21T16:56:34;-25.57;118.99
67186;HTU21D;54116;53.518;49.398;2024-02-21T16:59:03;-25.64;118.99
67186;HTU21D;54116;53.518;49.398;2024-02-21T17:01:34;-25.60;118.99
67186;HTU21D;54116;53.518;49.398;2024-02-21T17:04:01;-25.52;118.99
67186;HTU21D;54116;53.518;49.398;2024-02-21T17:06:29;-25.53;118.99
67186;HTU21D;54116;53.518;49.398;2024-02-21T17:08:57;-25.37;118.99
67186;HTU21D;54116;53.518;49.398;2024-02-21T17:11:23;-25.17;118.99
67186;HTU21D;54116;53.518;49.398;2024-02-21T17:13:49;-24.93;118.99
67186;HTU21D;54116;53.518;49.398;2024-02-21T17:16:16;-24.94;118.99
67186;HTU21D;54116;53.518;49.398;2024-02-21T17:18:42;-24.91;118.99
67186;HTU21D;54116;53.518;49.398;2024-02-21T17:21:08;-24.67;118.99
67186;HTU21D;54116;53.518;49.398;2024-02-21T17:23:35;-24.57;118.99
67186;HTU21D;54116;53.518;49.398;2024-02-21T17:26:01;-24.56;118.99
67186;HTU21D;54116;53.518;49.398;2024-02-21T17:28:27;-24.64;118.99
67186;HTU21D;54116;53.518;49.398;2024-02-21T17:30:53;-24.72;118.99
67186;HTU21D;54116;53.518;49.398;2024-02-21T17:33:19;-24.85;118.99
67186;HTU21D;54116;53.518;49.398;2024-02-21T17:35:46;-24.99;118.99
67186;HTU21D;54116;53.518;49.398;2024-02-21T17:38:14;-25.11;118.99
67186;HTU21D;54116;53.518;49.398;2024-02-21T17:40:40;-25.35;118.99
67186;HTU21D;54116;53.518;49.398;2024-02-21T17:43:06;-25.31;118.99
67186;HTU21D;54116;53.518;49.398;2024-02-21T17:45:33;-25.41;118.99
67186;HTU21D;54116;53.518;49.398;2024-02-21T17:48:01;-25.66;118.99
67186;HTU21D;54116;53.518;49.398;2024-02-21T17:50:27;-25.55;118.99
67186;HTU21D;54116;53.518;49.398;2024-02-21T17:52:53;-25.63;118.99
67186;HTU21D;54116;53.518;49.398;2024-02-21T17:55:19;-25.73;118.99
67186;HTU21D;54116;53.518;49.398;2024-02-21T17:57:45;-25.79;118.99
67186;HTU21D;54116;53.518;49.398;2024-02-21T18:00:11;-25.85;118.99
67186;HTU21D;54116;53.518;49.398;2024-02-21T18:02:38;-25.87;118.99
67186;HTU21D;54116;53.518;49.398;2024-02-21T18:05:04;-25.94;118.99
67186;HTU21D;54116;53.518;49.398;2024-02-21T18:07:30;-25.97;118.99
67186;HTU21D;54116;53.518;49.398;2024-02-21T18:09:57;-25.98;118.99
67186;HTU21D;54116;53.518;49.398;2024-02-21T18:12:23;-26.09;118.99
67186;HTU21D;54116;53.518;49.398;2024-02-21T18:14:49;-26.17;118.99
67186;HTU21D;54116;53.518;49.398;2024-02-21T18:17:16;-26.24;118.99
67186;HTU21D;54116;53.518;49.398;2024-02-21T18:19:42;-26.15;118.99
67186;HTU21D;54116;53.518;49.398;2024-02-21T18:22:08;-26.20;118.99
67186;HTU21D;54116;53.518;49.398;2024-02-21T18:24:34;-26.24;118.99
67186;HTU21D;54116;53.518;49.398;2024-02-21T18:27:00;-26.39;118.99
67186;HTU21D;54116;53.518;49.398;2024-02-21T18:29:27;-26.56;118.99
67186;HTU21D;54116;53.518;49.398;2024-02-21T18:31:53;-26.67;118.99
67186;HTU21D;54116;53.518;49.398;2024-02-21T18:34:19;-26.72;118.99
67186;HTU21D;54116;53.518;49.398;2024-02-21T18:36:46;-26.73;118.99
67186;HTU21D;54116;53.518;49.398;2024-02-21T18:39:13;-26.82;118.99
67186;HTU21D;54116;53.518;49.398;2024-02-21T18:41:40;-26.84;118.99
67186;HTU21D;54116;53.518;49.398;2024-02-21T18:44:12;-26.82;118.99
67186;HTU21D;54116;53.518;49.398;2024-02-21T18:46:39;-26.80;118.99
67186;HTU21D;54116;53.518;49.398;2024-02-21T18:49:06;-26.72;118.99
67186;HTU21D;54116;53.518;49.398;2024-02-21T18:51:32;-26.65;118.99
67186;HTU21D;54116;53.518;49.398;2024-02-21T18:53:59;-26.68;118.99
67186;HTU21D;54116;53.518;49.398;2024-02-21T18:56:25;-26.72;118.99
67186;HTU21D;54116;53.518;49.398;2024-02-21T18:58:55;-26.74;118.99
67186;HTU21D;54116;53.518;49.398;2024-02-21T19:01:21;-26.79;118.99
67186;HTU21D;54116;53.518;49.398;2024-02-21T19:03:47;-26.79;118.99
67186;HTU21D;54116;53.518;49.398;2024-02-21T19:06:14;-26.85;118.99
67186;HTU21D;54116;53.518;49.398;2024-02-21T19:08:45;-26.80;118.99
67186;HTU21D;54116;53.518;49.398;2024-02-21T19:11:16;-26.80;118.99
67186;HTU21D;54116;53.518;49.398;2024-02-21T19:13:42;-26.85;118.99
67186;HTU21D;54116;53.518;49.398;2024-02-21T19:16:26;-27.02;118.99
67186;HTU21D;54116;53.518;49.398;2024-02-21T19:18:54;-27.18;118.99
67186;HTU21D;54116;53.518;49.398;2024-02-21T19:21:20;-27.19;118.99
67186;HTU21D;54116;53.518;49.398;2024-02-21T19:23:46;-27.16;118.99
67186;HTU21D;54116;53.518;49.398;2024-02-21T19:26:12;-27.28;118.99
67186;HTU21D;54116;53.518;49.398;2024-02-21T19:28:38;-27.26;118.99
67186;HTU21D;54116;53.518;49.398;2024-02-21T19:31:05;-27.07;118.99
67186;HTU21D;54116;53.518;49.398;2024-02-21T19:35:42;-26.99;118.99
67186;HTU21D;54116;53.518;49.398;2024-02-21T19:38:09;-26.59;118.99
67186;HTU21D;54116;53.518;49.398;2024-02-21T19:40:35;-26.48;118.99
67186;HTU21D;54116;53.518;49.398;2024-02-21T19:43:01;-26.42;118.99
67186;HTU21D;54116;53.518;49.398;2024-02-21T19:45:28;-26.38;118.99
67186;HTU21D;54116;53.518;49.398;2024-02-21T19:47:55;-26.41;118.99
67186;HTU21D;54116;53.518;49.398;2024-02-21T19:50:21;-26.58;118.99
67186;HTU21D;54116;53.518;49.398;2024-02-21T19:52:48;-26.68;118.99
67186;HTU21D;54116;53.518;49.398;2024-02-21T19:55:17;-26.75;118.99
67186;HTU21D;54116;53.518;49.398;2024-02-21T19:57:44;-26.89;118.99
67186;HTU21D;54116;53.518;49.398;2024-02-21T20:00:12;-26.95;118.99
67186;HTU21D;54116;53.518;49.398;2024-02-21T20:04:51;-27.01;118.99
67186;HTU21D;54116;53.518;49.398;2024-02-21T20:13:58;-27.09;118.99
67186;HTU21D;54116;53.518;49.398;2024-02-21T20:16:27;-27.11;118.99
67186;HTU21D;54116;53.518;49.398;2024-02-21T20:32:29;-27.13;118.99
67186;HTU21D;54116;53.518;49.398;2024-02-21T20:57:01;-26.95;118.99
67186;HTU21D;54116;53.518;49.398;2024-02-21T21:01:45;-27.04;118.99
67186;HTU21D;54116;53.518;49.398;2024-02-21T21:06:40;-27.18;118.99
67186;HTU21D;54116;53.518;49.398;2024-02-21T21:09:07;-27.21;118.99
67186;HTU21D;54116;53.518;49.398;2024-02-21T21:13:52;-27.22;118.99
67186;HTU21D;54116;53.518;49.398;2024-02-21T21:16:18;-27.34;118.99
